Portada
METAR-TAF:

METAR-TAF

Aeroports :

Aeroport Internacional d'Osaka

Osaka, Japó

latitud: 34-47N, longitud: 135-27E, altitud: 12 m

Observació

L'informe es va fer fa 52 minuts, a les 08:00 UTC
Vent 14 kt del Nord/Nord-Oest
Temperatura 8°C
Humitat 42%
Pressió 1028 hPa
Visibilitat 10 km o més
Escasses núvols a una alçada de 3500 ft
Cel ennuvolat

METAR: RJOO 270800Z 34014KT 9999 FEW035 BKN/// 08/M04 Q1028 RMK 1CU035 A3037

Hora: 17:52 (08:52 UTC)

Pronòstic

L'informe es va fer fa 3 hores i 45 minuts, a les 05:07 UTC
Pronòstic vàlid del 27 a les 06 UTC al 28 a les 12 UTC
Vent 12 kt del Nord
Visibilitat 10 km o més
Escasses núvols a una alçada de 3500 ft
Evolucionant progressivament
l' 27 a les 21 UTC al 28 a les 00 UTC
Vent 10 kt del Est

TAF: RJOO 270507Z 2706/2812 35012KT 9999 FEW035 BECMG 2721/2800 08010KT

Observacions i pronòstics meteorològics de més de 4000 aeroports (METAR i TAF).

Les estacions disponibles són els punts grocs i vermells al mapa.

Posi el ratolí al punt desitjat per veure el nom de l'estació.

Feu clic per veure les observacions i els pronòstics meteorològics.

Per canviar el mapa: feu clic els botons verds amb una creu de color negre per apropar; al botó verd amb un guió per allunyar la imatge; o en les fletxes verdes per a mapes adjacents.


METAR-TAF: